KDFWYBBN

Guest
Details From KDFW - Dallas Fort Worth Intl
To YBBN - Brisbane Intl
Flight Number -
Tags Generated
Created
Modified
Stats Distance 7,221 nm / 13,373 km
Max Altitude 0 ft / 0 m
Waypoints 6
Social Downloads 1
Likes 0
Share VATSIM

Download

Looking for another format? Having issues loading an existing format? Contact us
Advertisement - Login to hide

Notes

Generated

Route

KDFW DEWEY WASIX LU REEKN YBBN

ID Type Via Altitude Latitude Longitude Leg Dist Tot Dist Heading (true) Name
O KDFW APT - 0 ft / 0 m 32.91257˚ -97.02148˚ - 0 nm - -
DEWEY FIX - 0 ft / 0 m 31.75950˚ -101.49645˚ 237 nm 237 nm 254° / 252° -
WASIX FIX - 0 ft / 0 m 30.63667˚ -104.97972˚ 191 nm 428 nm 250° / 248° -
LU NDB - 0 ft / 0 m -20.77594˚ 167.23886˚ 5921 nm 6350 nm 251° / 240° LIFOU NDB
REEKN FIX - 0 ft / 0 m -27.35167˚ 153.25000˚ 861 nm 7212 nm 240° / 246° -
O YBBN APT - 0 ft / 0 m -27.40786˚ 153.10379˚ 8 nm 7220 nm 247° / 247° -

Altitude Profile

Advertisement - Login to hide

Weather


0- 5 10 15 20 25 30 35+ Temperature / ° C

Clouds and Precipitation
Forecast for 2018-05-27 00:00 UTC. Updated an hour ago

Ground ~20,000 ft ~40,000 ft Winds

KDFW

Details ICAO KDFW (DFW)
Name Dallas Fort Worth Intl
Region United States
Timezone America/Chicago (UTC-5.0)
Stats Elevation 607 ft / 185 m (AMSL)
Location 32.897111° -97.036547°
Runways 7
Magnetic Variation 3.385° E

METAR

KDFW 262353Z 11012KT 10SM FEW060 FEW300 34/19 A2972 RMK AO2 SLP053 T03390194 10361 20333 56012

Decode

TAF

TAF KDFW 262320Z 2700/2806 14007KT P6SM FEW100= TAF KDAL 262320Z 2700/2724 12007KT P6SM FEW100

Decode

Departure Runways

ID Width Length Bearing (true) Bearing (mag) Surface Threshold Offset Overrun Length
13L 200 ft / 61 m 9,005 ft / 2,745 m 135.40° 132.02° Concrete 623 ft / 190 m 299 ft / 91 m
13R 151 ft / 46 m 9,309 ft / 2,837 m 139.18° 135.80° Concrete 0 ft / 0 m 299 ft / 91 m
17C 151 ft / 46 m 13,440 ft / 4,097 m 180.26° 176.88° Concrete 0 ft / 0 m 299 ft / 91 m
17L 151 ft / 46 m 8,525 ft / 2,599 m 180.27° 176.89° Concrete 0 ft / 0 m 400 ft / 122 m
17R 200 ft / 61 m 13,439 ft / 4,096 m 180.26° 176.88° Concrete 0 ft / 0 m 299 ft / 91 m
18L 200 ft / 61 m 13,439 ft / 4,096 m 180.25° 176.87° Concrete 0 ft / 0 m 299 ft / 91 m
18R 151 ft / 46 m 13,439 ft / 4,096 m 180.25° 176.87° Concrete 0 ft / 0 m 299 ft / 91 m
31L 151 ft / 46 m 9,309 ft / 2,837 m 319.19° 315.81° Concrete 0 ft / 0 m 299 ft / 91 m
31R 200 ft / 61 m 9,005 ft / 2,745 m 315.41° 312.03° Concrete 0 ft / 0 m 299 ft / 91 m
35C 151 ft / 46 m 13,440 ft / 4,097 m 0.26° 356.88° Concrete 0 ft / 0 m 299 ft / 91 m
35L 200 ft / 61 m 13,439 ft / 4,096 m 0.26° 356.88° Concrete 0 ft / 0 m 299 ft / 91 m
35R 151 ft / 46 m 8,525 ft / 2,599 m 0.27° 356.89° Concrete 0 ft / 0 m 400 ft / 122 m
36L 151 ft / 46 m 13,439 ft / 4,096 m 0.25° 356.87° Concrete 0 ft / 0 m 299 ft / 91 m
36R 200 ft / 61 m 13,439 ft / 4,096 m 0.25° 356.87° Concrete 0 ft / 0 m 299 ft / 91 m

YBBN

Details ICAO YBBN (BNE)
Name Brisbane Intl
Region Australia
Timezone Australia/Brisbane (UTC+10.0)
Stats Elevation 12 ft / 4 m (AMSL)
Location -27.375714° 153.127710°
Runways 2
Magnetic Variation 10.987° E

METAR

YBBN 270000Z 16007KT 9999 VCSH FEW020 SCT065 21/13 Q1026

Decode

TAF

TAF AMD YBBN 262322Z 2700/2806 13012KT 9999 -SHRA SCT035 FM270700 14008KT 9999 -SHRA SCT030 FM271000 19007KT 9999 SCT030 FM271800 18008KT 9999 -SHRA SCT025 FM280000 14010KT 9999 -SHRA SCT030 FM280300 12010KT 9999 SCT035 INTER 2706/2712 3000 SHRA BKN015 INTER 2721/2801 3000 SHRA BKN015

Decode

Destination Runways

ID Width Length Bearing (true) Bearing (mag) Surface Threshold Offset Overrun Length
01 148 ft / 45 m 11,805 ft / 3,598 m 26.93° 15.94° Asphalt 197 ft / 60 m 0 ft / 0 m
14 98 ft / 30 m 5,787 ft / 1,764 m 145.66° 134.67° Asphalt 197 ft / 60 m 0 ft / 0 m
19 148 ft / 45 m 11,805 ft / 3,598 m 206.92° 195.93° Asphalt 0 ft / 0 m 0 ft / 0 m
32 98 ft / 30 m 5,787 ft / 1,764 m 325.66° 314.67° Asphalt 197 ft / 60 m 0 ft / 0 m

Approach Navaids

Runway Type Ident Frequency Range Bearing (true) Bearing (mag) Slope Elevation
01 Localiser IBA 109.50 MHz 18 nm / 33 km 26.70° 15.71° - 28 ft / 9 m (AMSL)
01 Glidescope IBA 109.50 MHz 10 nm / 19 km 26.92° 15.93° 3.00° 13 ft / 4 m (AMSL)
19 Localiser IBS 110.10 MHz 18 nm / 33 km 206.97° 195.98° - 49 ft / 15 m (AMSL)
19 Glidescope IBS 110.10 MHz 10 nm / 19 km 206.92° 195.93° 3.00° 13 ft / 4 m (AMSL)

Popular Alternatives